sensor_id;sensor_type;location;lat;lon;timestamp;pressure;altitude;pressure_sealevel;temperature
68027;BMP180;54819;48.030;14.710;2022-10-22T00:00:14;97331.60;;;10.98
68027;BMP180;54819;48.030;14.710;2022-10-22T00:02:42;97335.20;;;10.94
68027;BMP180;54819;48.030;14.710;2022-10-22T00:05:10;97338.40;;;10.96
68027;BMP180;54819;48.030;14.710;2022-10-22T00:07:36;97344.60;;;10.90
68027;BMP180;54819;48.030;14.710;2022-10-22T00:10:06;97345.60;;;10.90
68027;BMP180;54819;48.030;14.710;2022-10-22T00:12:33;97344.80;;;10.90
68027;BMP180;54819;48.030;14.710;2022-10-22T00:15:02;97341.80;;;10.90
68027;BMP180;54819;48.030;14.710;2022-10-22T00:17:28;97343.00;;;10.90
68027;BMP180;54819;48.030;14.710;2022-10-22T00:19:55;97345.40;;;10.90
68027;BMP180;54819;48.030;14.710;2022-10-22T00:22:22;97343.80;;;10.80
68027;BMP180;54819;48.030;14.710;2022-10-22T00:24:49;97343.00;;;10.80
68027;BMP180;54819;48.030;14.710;2022-10-22T00:27:16;97338.60;;;10.80
68027;BMP180;54819;48.030;14.710;2022-10-22T00:29:43;97331.80;;;10.80
68027;BMP180;54819;48.030;14.710;2022-10-22T00:32:10;97334.80;;;10.80
68027;BMP180;54819;48.030;14.710;2022-10-22T00:34:36;97342.40;;;10.80
68027;BMP180;54819;48.030;14.710;2022-10-22T00:37:03;97350.00;;;10.82
68027;BMP180;54819;48.030;14.710;2022-10-22T00:39:31;97349.60;;;10.90
68027;BMP180;54819;48.030;14.710;2022-10-22T00:41:58;97340.20;;;10.90
68027;BMP180;54819;48.030;14.710;2022-10-22T00:50:40;97347.40;;;11.00
68027;BMP180;54819;48.030;14.710;2022-10-22T00:53:22;97352.40;;;11.00
68027;BMP180;54819;48.030;14.710;2022-10-22T00:55:52;97355.60;;;11.00
68027;BMP180;54819;48.030;14.710;2022-10-22T00:58:25;97355.00;;;10.90
68027;BMP180;54819;48.030;14.710;2022-10-22T01:00:53;97349.60;;;10.90
68027;BMP180;54819;48.030;14.710;2022-10-22T01:03:21;97338.80;;;10.90
68027;BMP180;54819;48.030;14.710;2022-10-22T01:06:00;97327.20;;;10.90
68027;BMP180;54819;48.030;14.710;2022-10-22T01:08:49;97331.40;;;10.90
68027;BMP180;54819;48.030;14.710;2022-10-22T01:12:26;97330.20;;;10.90
68027;BMP180;54819;48.030;14.710;2022-10-22T01:15:41;97314.20;;;10.90
68027;BMP180;54819;48.030;14.710;2022-10-22T01:18:26;97297.60;;;10.90
68027;BMP180;54819;48.030;14.710;2022-10-22T01:24:11;97281.60;;;10.90
68027;BMP180;54819;48.030;14.710;2022-10-22T01:27:25;97298.60;;;10.90
68027;BMP180;54819;48.030;14.710;2022-10-22T01:30:06;97310.60;;;10.90
68027;BMP180;54819;48.030;14.710;2022-10-22T01:32:59;97315.40;;;10.90
68027;BMP180;54819;48.030;14.710;2022-10-22T01:35:38;97304.40;;;10.90
68027;BMP180;54819;48.030;14.710;2022-10-22T01:38:11;97292.60;;;10.90
68027;BMP180;54819;48.030;14.710;2022-10-22T01:40:39;97281.80;;;10.90
68027;BMP180;54819;48.030;14.710;2022-10-22T01:43:09;97276.00;;;10.92
68027;BMP180;54819;48.030;14.710;2022-10-22T01:45:50;97268.40;;;10.98
68027;BMP180;54819;48.030;14.710;2022-10-22T01:48:33;97254.60;;;11.00
68027;BMP180;54819;48.030;14.710;2022-10-22T01:54:50;97248.40;;;10.90
68027;BMP180;54819;48.030;14.710;2022-10-22T01:58:51;97245.80;;;10.90
68027;BMP180;54819;48.030;14.710;2022-10-22T02:00:59;97255.20;;;10.80
68027;BMP180;54819;48.030;14.710;2022-10-22T02:03:55;97255.60;;;10.80
68027;BMP180;54819;48.030;14.710;2022-10-22T02:06:27;97257.20;;;10.70
68027;BMP180;54819;48.030;14.710;2022-10-22T02:08:57;97261.80;;;10.70
68027;BMP180;54819;48.030;14.710;2022-10-22T02:11:25;97259.80;;;10.70
68027;BMP180;54819;48.030;14.710;2022-10-22T02:13:56;97260.00;;;10.60
68027;BMP180;54819;48.030;14.710;2022-10-22T02:16:39;97269.00;;;10.60
68027;BMP180;54819;48.030;14.710;2022-10-22T02:19:24;97281.80;;;10.60
68027;BMP180;54819;48.030;14.710;2022-10-22T02:21:53;97285.60;;;10.60
68027;BMP180;54819;48.030;14.710;2022-10-22T02:24:21;97288.20;;;10.70
68027;BMP180;54819;48.030;14.710;2022-10-22T02:27:18;97286.40;;;10.70
68027;BMP180;54819;48.030;14.710;2022-10-22T02:35:26;97255.40;;;10.80
68027;BMP180;54819;48.030;14.710;2022-10-22T02:37:56;97258.60;;;10.90
68027;BMP180;54819;48.030;14.710;2022-10-22T02:40:25;97261.00;;;10.90
68027;BMP180;54819;48.030;14.710;2022-10-22T02:42:53;97251.20;;;10.90
68027;BMP180;54819;48.030;14.710;2022-10-22T02:45:20;97228.80;;;10.90
68027;BMP180;54819;48.030;14.710;2022-10-22T02:47:47;97220.60;;;10.80
68027;BMP180;54819;48.030;14.710;2022-10-22T02:50:15;97218.40;;;10.80
68027;BMP180;54819;48.030;14.710;2022-10-22T02:52:42;97217.60;;;10.80
68027;BMP180;54819;48.030;14.710;2022-10-22T02:55:09;97216.00;;;10.70
68027;BMP180;54819;48.030;14.710;2022-10-22T02:57:36;97210.80;;;10.70
68027;BMP180;54819;48.030;14.710;2022-10-22T03:00:06;97213.40;;;10.70
68027;BMP180;54819;48.030;14.710;2022-10-22T03:02:34;97211.00;;;10.60
68027;BMP180;54819;48.030;14.710;2022-10-22T03:05:01;97221.40;;;10.60
68027;BMP180;54819;48.030;14.710;2022-10-22T03:07:28;97230.20;;;10.60
68027;BMP180;54819;48.030;14.710;2022-10-22T03:09:54;97233.20;;;10.62
68027;BMP180;54819;48.030;14.710;2022-10-22T03:12:21;97229.20;;;10.70
68027;BMP180;54819;48.030;14.710;2022-10-22T03:14:48;97235.60;;;10.68
68027;BMP180;54819;48.030;14.710;2022-10-22T03:17:15;97247.20;;;10.60
68027;BMP180;54819;48.030;14.710;2022-10-22T03:19:42;97256.80;;;10.60
68027;BMP180;54819;48.030;14.710;2022-10-22T03:22:20;97262.40;;;10.60
68027;BMP180;54819;48.030;14.710;2022-10-22T03:24:52;97280.00;;;10.60
68027;BMP180;54819;48.030;14.710;2022-10-22T03:27:21;97278.60;;;10.64
68027;BMP180;54819;48.030;14.710;2022-10-22T03:29:51;97277.60;;;10.70
68027;BMP180;54819;48.030;14.710;2022-10-22T03:32:18;97281.80;;;10.70
68027;BMP180;54819;48.030;14.710;2022-10-22T03:34:45;97279.80;;;10.80
68027;BMP180;54819;48.030;14.710;2022-10-22T03:37:13;97274.00;;;10.80
68027;BMP180;54819;48.030;14.710;2022-10-22T03:39:40;97277.00;;;10.80
68027;BMP180;54819;48.030;14.710;2022-10-22T03:42:07;97289.60;;;10.80
68027;BMP180;54819;48.030;14.710;2022-10-22T03:44:37;97301.40;;;10.80
68027;BMP180;54819;48.030;14.710;2022-10-22T03:47:05;97311.00;;;10.90
68027;BMP180;54819;48.030;14.710;2022-10-22T03:49:32;97321.00;;;10.90
68027;BMP180;54819;48.030;14.710;2022-10-22T03:52:12;97331.60;;;10.86
68027;BMP180;54819;48.030;14.710;2022-10-22T03:54:40;97327.40;;;10.90
68027;BMP180;54819;48.030;14.710;2022-10-22T03:57:10;97332.60;;;10.90
68027;BMP180;54819;48.030;14.710;2022-10-22T03:59:44;97332.80;;;10.90
68027;BMP180;54819;48.030;14.710;2022-10-22T04:02:13;97338.40;;;10.90
68027;BMP180;54819;48.030;14.710;2022-10-22T04:04:39;97341.80;;;10.92
68027;BMP180;54819;48.030;14.710;2022-10-22T04:07:07;97345.40;;;10.92
68027;BMP180;54819;48.030;14.710;2022-10-22T04:09:34;97345.60;;;10.90
68027;BMP180;54819;48.030;14.710;2022-10-22T04:12:02;97347.00;;;10.90
68027;BMP180;54819;48.030;14.710;2022-10-22T04:14:31;97362.60;;;10.84
68027;BMP180;54819;48.030;14.710;2022-10-22T04:16:58;97356.80;;;10.80
68027;BMP180;54819;48.030;14.710;2022-10-22T04:19:25;97347.60;;;10.80
68027;BMP180;54819;48.030;14.710;2022-10-22T04:21:51;97345.80;;;10.70
68027;BMP180;54819;48.030;14.710;2022-10-22T04:24:18;97366.60;;;10.70
68027;BMP180;54819;48.030;14.710;2022-10-22T04:26:45;97374.40;;;10.70
68027;BMP180;54819;48.030;14.710;2022-10-22T04:29:12;97374.80;;;10.70
68027;BMP180;54819;48.030;14.710;2022-10-22T04:31:42;97390.40;;;10.70
68027;BMP180;54819;48.030;14.710;2022-10-22T04:34:08;97398.40;;;10.70
68027;BMP180;54819;48.030;14.710;2022-10-22T04:36:35;97397.20;;;10.70
68027;BMP180;54819;48.030;14.710;2022-10-22T04:39:04;97405.20;;;10.70
68027;BMP180;54819;48.030;14.710;2022-10-22T04:41:35;97410.80;;;10.70
68027;BMP180;54819;48.030;14.710;2022-10-22T04:44:04;97418.80;;;10.66
68027;BMP180;54819;48.030;14.710;2022-10-22T04:46:33;97419.40;;;10.70
68027;BMP180;54819;48.030;14.710;2022-10-22T04:49:00;97429.60;;;10.70
68027;BMP180;54819;48.030;14.710;2022-10-22T04:51:30;97438.20;;;10.70
68027;BMP180;54819;48.030;14.710;2022-10-22T04:53:57;97445.40;;;10.72
68027;BMP180;54819;48.030;14.710;2022-10-22T04:56:28;97440.20;;;10.76
68027;BMP180;54819;48.030;14.710;2022-10-22T04:59:01;97426.00;;;10.80
68027;BMP180;54819;48.030;14.710;2022-10-22T05:01:35;97439.20;;;10.80
68027;BMP180;54819;48.030;14.710;2022-10-22T05:04:13;97449.00;;;10.90
68027;BMP180;54819;48.030;14.710;2022-10-22T05:06:40;97454.40;;;10.90
68027;BMP180;54819;48.030;14.710;2022-10-22T05:09:14;97466.00;;;10.90
68027;BMP180;54819;48.030;14.710;2022-10-22T05:11:45;97483.80;;;11.00
68027;BMP180;54819;48.030;14.710;2022-10-22T05:14:22;97488.00;;;11.20
68027;BMP180;54819;48.030;14.710;2022-10-22T05:16:51;97473.60;;;11.20
68027;BMP180;54819;48.030;14.710;2022-10-22T05:19:27;97456.60;;;11.20
68027;BMP180;54819;48.030;14.710;2022-10-22T05:21:58;97465.00;;;11.20
68027;BMP180;54819;48.030;14.710;2022-10-22T05:24:28;97488.20;;;11.20
68027;BMP180;54819;48.030;14.710;2022-10-22T05:26:58;97487.60;;;11.20
68027;BMP180;54819;48.030;14.710;2022-10-22T05:29:25;97500.00;;;11.20
68027;BMP180;54819;48.030;14.710;2022-10-22T05:31:53;97494.80;;;11.20
68027;BMP180;54819;48.030;14.710;2022-10-22T05:34:20;97487.40;;;11.30
68027;BMP180;54819;48.030;14.710;2022-10-22T05:36:47;97487.80;;;11.30
68027;BMP180;54819;48.030;14.710;2022-10-22T05:39:14;97494.20;;;11.30
68027;BMP180;54819;48.030;14.710;2022-10-22T05:41:41;97509.00;;;11.30
68027;BMP180;54819;48.030;14.710;2022-10-22T05:44:11;97509.00;;;11.40
68027;BMP180;54819;48.030;14.710;2022-10-22T05:46:39;97518.40;;;11.42
68027;BMP180;54819;48.030;14.710;2022-10-22T05:49:06;97516.20;;;11.50
68027;BMP180;54819;48.030;14.710;2022-10-22T05:51:35;97506.00;;;11.60
68027;BMP180;54819;48.030;14.710;2022-10-22T05:54:06;97509.60;;;11.64
68027;BMP180;54819;48.030;14.710;2022-10-22T05:56:34;97516.20;;;11.70
68027;BMP180;54819;48.030;14.710;2022-10-22T05:59:03;97515.40;;;11.78
68027;BMP180;54819;48.030;14.710;2022-10-22T06:01:32;97513.40;;;11.80
68027;BMP180;54819;48.030;14.710;2022-10-22T06:04:05;97512.20;;;11.90
68027;BMP180;54819;48.030;14.710;2022-10-22T06:06:44;97520.20;;;11.90
68027;BMP180;54819;48.030;14.710;2022-10-22T06:09:19;97519.20;;;11.90
68027;BMP180;54819;48.030;14.710;2022-10-22T06:11:48;97517.00;;;11.90
68027;BMP180;54819;48.030;14.710;2022-10-22T06:14:18;97526.40;;;11.90
68027;BMP180;54819;48.030;14.710;2022-10-22T06:16:45;97538.60;;;11.86
68027;BMP180;54819;48.030;14.710;2022-10-22T06:19:14;97541.20;;;11.90
68027;BMP180;54819;48.030;14.710;2022-10-22T06:21:42;97547.20;;;11.90
68027;BMP180;54819;48.030;14.710;2022-10-22T06:24:10;97546.20;;;11.90
68027;BMP180;54819;48.030;14.710;2022-10-22T06:26:37;97548.20;;;11.90
68027;BMP180;54819;48.030;14.710;2022-10-22T06:29:04;97559.40;;;11.90
68027;BMP180;54819;48.030;14.710;2022-10-22T06:31:32;97568.60;;;12.00
68027;BMP180;54819;48.030;14.710;2022-10-22T06:34:10;97570.40;;;12.00
68027;BMP180;54819;48.030;14.710;2022-10-22T06:36:38;97581.00;;;12.08
68027;BMP180;54819;48.030;14.710;2022-10-22T06:39:14;97586.20;;;12.10
68027;BMP180;54819;48.030;14.710;2022-10-22T06:41:41;97587.20;;;12.20
68027;BMP180;54819;48.030;14.710;2022-10-22T06:44:14;97586.60;;;12.20
68027;BMP180;54819;48.030;14.710;2022-10-22T06:46:41;97588.20;;;12.30
68027;BMP180;54819;48.030;14.710;2022-10-22T06:49:12;97591.40;;;12.32
68027;BMP180;54819;48.030;14.710;2022-10-22T06:51:39;97588.80;;;12.40
68027;BMP180;54819;48.030;14.710;2022-10-22T06:54:07;97597.80;;;12.40
68027;BMP180;54819;48.030;14.710;2022-10-22T06:56:34;97599.80;;;12.50
68027;BMP180;54819;48.030;14.710;2022-10-22T06:59:02;97601.40;;;12.50
68027;BMP180;54819;48.030;14.710;2022-10-22T07:01:32;97599.60;;;12.52
68027;BMP180;54819;48.030;14.710;2022-10-22T07:04:00;97604.40;;;12.60
68027;BMP180;54819;48.030;14.710;2022-10-22T07:06:28;97597.40;;;12.60
68027;BMP180;54819;48.030;14.710;2022-10-22T07:08:56;97602.20;;;12.70
68027;BMP180;54819;48.030;14.710;2022-10-22T07:11:26;97604.80;;;12.70
68027;BMP180;54819;48.030;14.710;2022-10-22T07:13:55;97603.60;;;12.70
68027;BMP180;54819;48.030;14.710;2022-10-22T07:16:23;97608.00;;;12.76
68027;BMP180;54819;48.030;14.710;2022-10-22T07:18:58;97605.80;;;12.80
68027;BMP180;54819;48.030;14.710;2022-10-22T07:21:25;97608.20;;;12.80
68027;BMP180;54819;48.030;14.710;2022-10-22T07:23:52;97614.80;;;12.90
68027;BMP180;54819;48.030;14.710;2022-10-22T07:26:19;97608.80;;;12.90
68027;BMP180;54819;48.030;14.710;2022-10-22T07:28:46;97611.40;;;12.96
68027;BMP180;54819;48.030;14.710;2022-10-22T07:31:14;97611.80;;;13.00
68027;BMP180;54819;48.030;14.710;2022-10-22T07:33:42;97615.40;;;13.10
68027;BMP180;54819;48.030;14.710;2022-10-22T07:36:12;97621.60;;;13.20
68027;BMP180;54819;48.030;14.710;2022-10-22T07:38:44;97620.60;;;13.30
68027;BMP180;54819;48.030;14.710;2022-10-22T07:41:12;97620.00;;;13.30
68027;BMP180;54819;48.030;14.710;2022-10-22T07:43:39;97614.40;;;13.32
68027;BMP180;54819;48.030;14.710;2022-10-22T07:46:06;97618.00;;;13.40
68027;BMP180;54819;48.030;14.710;2022-10-22T07:48:35;97622.60;;;13.40
68027;BMP180;54819;48.030;14.710;2022-10-22T07:51:03;97622.60;;;13.40
68027;BMP180;54819;48.030;14.710;2022-10-22T07:53:31;97626.00;;;13.50
68027;BMP180;54819;48.030;14.710;2022-10-22T07:55:58;97625.20;;;13.50
68027;BMP180;54819;48.030;14.710;2022-10-22T07:58:24;97626.80;;;13.50
68027;BMP180;54819;48.030;14.710;2022-10-22T08:00:55;97624.40;;;13.50
68027;BMP180;54819;48.030;14.710;2022-10-22T08:03:22;97632.40;;;13.50
68027;BMP180;54819;48.030;14.710;2022-10-22T08:05:50;97626.80;;;13.50
68027;BMP180;54819;48.030;14.710;2022-10-22T08:08:17;97632.00;;;13.60
68027;BMP180;54819;48.030;14.710;2022-10-22T08:10:45;97630.60;;;13.70
68027;BMP180;54819;48.030;14.710;2022-10-22T08:13:13;97633.80;;;13.90
68027;BMP180;54819;48.030;14.710;2022-10-22T08:15:42;97624.00;;;13.90
68027;BMP180;54819;48.030;14.710;2022-10-22T08:18:10;97641.20;;;14.00
68027;BMP180;54819;48.030;14.710;2022-10-22T08:20:36;97641.20;;;14.02
68027;BMP180;54819;48.030;14.710;2022-10-22T08:23:03;97644.80;;;14.10
68027;BMP180;54819;48.030;14.710;2022-10-22T08:25:31;97646.40;;;14.20
68027;BMP180;54819;48.030;14.710;2022-10-22T08:27:58;97638.40;;;14.28
68027;BMP180;54819;48.030;14.710;2022-10-22T08:30:25;97639.80;;;14.34
68027;BMP180;54819;48.030;14.710;2022-10-22T08:32:55;97638.60;;;14.40
68027;BMP180;54819;48.030;14.710;2022-10-22T08:35:22;97639.00;;;14.50
68027;BMP180;54819;48.030;14.710;2022-10-22T08:37:49;97635.20;;;14.60
68027;BMP180;54819;48.030;14.710;2022-10-22T08:40:32;97627.80;;;14.70
68027;BMP180;54819;48.030;14.710;2022-10-22T08:43:19;97627.20;;;14.80
68027;BMP180;54819;48.030;14.710;2022-10-22T08:45:58;97632.40;;;15.00
68027;BMP180;54819;48.030;14.710;2022-10-22T08:51:18;97629.60;;;15.26
68027;BMP180;54819;48.030;14.710;2022-10-22T08:56:43;97628.60;;;15.68
68027;BMP180;54819;48.030;14.710;2022-10-22T08:59:18;97624.80;;;15.80
68027;BMP180;54819;48.030;14.710;2022-10-22T09:01:50;97625.40;;;15.94
68027;BMP180;54819;48.030;14.710;2022-10-22T09:04:32;97626.80;;;16.10
68027;BMP180;54819;48.030;14.710;2022-10-22T09:07:01;97628.60;;;16.28
68027;BMP180;54819;48.030;14.710;2022-10-22T09:09:33;97635.00;;;16.40
68027;BMP180;54819;48.030;14.710;2022-10-22T09:12:03;97638.80;;;16.40
68027;BMP180;54819;48.030;14.710;2022-10-22T09:14:30;97644.60;;;16.40
68027;BMP180;54819;48.030;14.710;2022-10-22T09:20:26;97640.40;;;16.60
68027;BMP180;54819;48.030;14.710;2022-10-22T09:23:17;97647.60;;;16.70
68027;BMP180;54819;48.030;14.710;2022-10-22T09:25:46;97651.20;;;16.70
68027;BMP180;54819;48.030;14.710;2022-10-22T09:28:14;97655.00;;;16.70
68027;BMP180;54819;48.030;14.710;2022-10-22T09:30:41;97665.20;;;16.70
68027;BMP180;54819;48.030;14.710;2022-10-22T09:38:15;97659.20;;;16.72
68027;BMP180;54819;48.030;14.710;2022-10-22T09:40:45;97663.80;;;16.86
68027;BMP180;54819;48.030;14.710;2022-10-22T09:43:12;97672.40;;;17.00
68027;BMP180;54819;48.030;14.710;2022-10-22T09:45:41;97678.00;;;17.10
68027;BMP180;54819;48.030;14.710;2022-10-22T09:48:13;97679.20;;;17.20
68027;BMP180;54819;48.030;14.710;2022-10-22T09:50:48;97675.80;;;17.30
68027;BMP180;54819;48.030;14.710;2022-10-22T09:53:20;97677.00;;;17.30
68027;BMP180;54819;48.030;14.710;2022-10-22T09:55:51;97681.20;;;17.30
68027;BMP180;54819;48.030;14.710;2022-10-22T09:58:19;97682.60;;;17.30
68027;BMP180;54819;48.030;14.710;2022-10-22T10:00:58;97680.00;;;17.30
68027;BMP180;54819;48.030;14.710;2022-10-22T10:03:28;97684.60;;;17.20
68027;BMP180;54819;48.030;14.710;2022-10-22T10:05:58;97689.00;;;17.20
68027;BMP180;54819;48.030;14.710;2022-10-22T10:08:31;97688.20;;;17.20
68027;BMP180;54819;48.030;14.710;2022-10-22T10:11:04;97691.40;;;17.20
68027;BMP180;54819;48.030;14.710;2022-10-22T10:13:50;97696.80;;;17.20
68027;BMP180;54819;48.030;14.710;2022-10-22T10:16:47;97700.40;;;17.20
68027;BMP180;54819;48.030;14.710;2022-10-22T10:22:47;97711.80;;;17.20
68027;BMP180;54819;48.030;14.710;2022-10-22T10:25:39;97714.40;;;17.20
68027;BMP180;54819;48.030;14.710;2022-10-22T10:34:11;97715.40;;;17.24
68027;BMP180;54819;48.030;14.710;2022-10-22T10:36:50;97717.40;;;17.30
68027;BMP180;54819;48.030;14.710;2022-10-22T10:45:04;97720.40;;;17.50
68027;BMP180;54819;48.030;14.710;2022-10-22T10:56:36;97724.20;;;17.60
68027;BMP180;54819;48.030;14.710;2022-10-22T10:59:36;97732.00;;;17.50
68027;BMP180;54819;48.030;14.710;2022-10-22T11:07:58;97737.40;;;17.40
68027;BMP180;54819;48.030;14.710;2022-10-22T11:10:30;97736.40;;;17.46
68027;BMP180;54819;48.030;14.710;2022-10-22T11:13:03;97734.00;;;17.50
68027;BMP180;54819;48.030;14.710;2022-10-22T11:15:35;97737.00;;;17.50
68027;BMP180;54819;48.030;14.710;2022-10-22T11:18:13;97735.80;;;17.40
68027;BMP180;54819;48.030;14.710;2022-10-22T11:23:33;97736.40;;;17.30
68027;BMP180;54819;48.030;14.710;2022-10-22T11:26:03;97736.40;;;17.30
68027;BMP180;54819;48.030;14.710;2022-10-22T11:28:36;97729.80;;;17.40
68027;BMP180;54819;48.030;14.710;2022-10-22T11:31:14;97725.00;;;17.40
68027;BMP180;54819;48.030;14.710;2022-10-22T11:33:54;97719.60;;;17.50
68027;BMP180;54819;48.030;14.710;2022-10-22T11:36:36;97712.20;;;17.50
68027;BMP180;54819;48.030;14.710;2022-10-22T11:39:03;97713.40;;;17.50
68027;BMP180;54819;48.030;14.710;2022-10-22T11:41:32;97708.40;;;17.58
68027;BMP180;54819;48.030;14.710;2022-10-22T11:44:21;97718.60;;;17.60
68027;BMP180;54819;48.030;14.710;2022-10-22T11:49:24;97719.60;;;17.58
68027;BMP180;54819;48.030;14.710;2022-10-22T11:52:05;97721.20;;;17.50
68027;BMP180;54819;48.030;14.710;2022-10-22T11:54:47;97724.60;;;17.50
68027;BMP180;54819;48.030;14.710;2022-10-22T12:02:37;97717.80;;;17.30
68027;BMP180;54819;48.030;14.710;2022-10-22T12:13:57;97703.20;;;17.12
68027;BMP180;54819;48.030;14.710;2022-10-22T12:16:35;97704.20;;;17.10
68027;BMP180;54819;48.030;14.710;2022-10-22T12:21:53;97703.20;;;17.10
68027;BMP180;54819;48.030;14.710;2022-10-22T12:24:23;97696.20;;;17.06
68027;BMP180;54819;48.030;14.710;2022-10-22T12:26:50;97702.00;;;17.00
68027;BMP180;54819;48.030;14.710;2022-10-22T12:29:20;97699.40;;;16.96
68027;BMP180;54819;48.030;14.710;2022-10-22T12:31:52;97694.60;;;16.90
68027;BMP180;54819;48.030;14.710;2022-10-22T12:34:22;97696.80;;;16.90
68027;BMP180;54819;48.030;14.710;2022-10-22T12:36:51;97694.00;;;16.90
68027;BMP180;54819;48.030;14.710;2022-10-22T12:39:21;97691.00;;;16.82
68027;BMP180;54819;48.030;14.710;2022-10-22T12:41:48;97695.20;;;16.82
68027;BMP180;54819;48.030;14.710;2022-10-22T12:44:16;97693.80;;;16.90
68027;BMP180;54819;48.030;14.710;2022-10-22T12:46:46;97686.40;;;16.90
68027;BMP180;54819;48.030;14.710;2022-10-22T12:49:19;97687.80;;;16.90
68027;BMP180;54819;48.030;14.710;2022-10-22T12:51:48;97687.40;;;17.00
68027;BMP180;54819;48.030;14.710;2022-10-22T12:54:27;97688.20;;;17.10
68027;BMP180;54819;48.030;14.710;2022-10-22T12:56:55;97686.00;;;17.10
68027;BMP180;54819;48.030;14.710;2022-10-22T12:59:26;97680.20;;;17.10
68027;BMP180;54819;48.030;14.710;2022-10-22T13:01:54;97683.40;;;17.08
68027;BMP180;54819;48.030;14.710;2022-10-22T13:04:36;97676.80;;;17.08
68027;BMP180;54819;48.030;14.710;2022-10-22T13:09:56;97671.20;;;17.06
68027;BMP180;54819;48.030;14.710;2022-10-22T13:12:26;97671.00;;;17.10
68027;BMP180;54819;48.030;14.710;2022-10-22T13:14:53;97668.60;;;17.10
68027;BMP180;54819;48.030;14.710;2022-10-22T13:17:37;97666.40;;;17.10
68027;BMP180;54819;48.030;14.710;2022-10-22T13:20:16;97666.20;;;17.14
68027;BMP180;54819;48.030;14.710;2022-10-22T13:23:01;97661.20;;;17.20
68027;BMP180;54819;48.030;14.710;2022-10-22T13:25:34;97658.40;;;17.20
68027;BMP180;54819;48.030;14.710;2022-10-22T13:30:35;97662.00;;;17.30
68027;BMP180;54819;48.030;14.710;2022-10-22T13:33:06;97662.60;;;17.36
68027;BMP180;54819;48.030;14.710;2022-10-22T13:35:35;97662.20;;;17.40
68027;BMP180;54819;48.030;14.710;2022-10-22T13:38:16;97665.60;;;17.40
68027;BMP180;54819;48.030;14.710;2022-10-22T13:40:44;97666.40;;;17.40
68027;BMP180;54819;48.030;14.710;2022-10-22T13:43:11;97661.00;;;17.40
68027;BMP180;54819;48.030;14.710;2022-10-22T13:45:39;97664.40;;;17.50
68027;BMP180;54819;48.030;14.710;2022-10-22T13:48:14;97671.20;;;17.50
68027;BMP180;54819;48.030;14.710;2022-10-22T13:50:41;97675.40;;;17.50
68027;BMP180;54819;48.030;14.710;2022-10-22T13:53:14;97676.20;;;17.50
68027;BMP180;54819;48.030;14.710;2022-10-22T13:55:44;97677.80;;;17.50
68027;BMP180;54819;48.030;14.710;2022-10-22T13:58:13;97682.40;;;17.50
68027;BMP180;54819;48.030;14.710;2022-10-22T14:00:42;97688.80;;;17.48
68027;BMP180;54819;48.030;14.710;2022-10-22T14:03:13;97690.80;;;17.48
68027;BMP180;54819;48.030;14.710;2022-10-22T14:05:41;97694.00;;;17.50
68027;BMP180;54819;48.030;14.710;2022-10-22T14:08:16;97699.60;;;17.50
68027;BMP180;54819;48.030;14.710;2022-10-22T14:10:43;97697.80;;;17.48
68027;BMP180;54819;48.030;14.710;2022-10-22T14:13:11;97701.80;;;17.40
68027;BMP180;54819;48.030;14.710;2022-10-22T14:15:39;97706.60;;;17.40
68027;BMP180;54819;48.030;14.710;2022-10-22T14:18:07;97705.60;;;17.30
68027;BMP180;54819;48.030;14.710;2022-10-22T14:20:38;97692.20;;;17.30
68027;BMP180;54819;48.030;14.710;2022-10-22T14:23:18;97700.00;;;17.30
68027;BMP180;54819;48.030;14.710;2022-10-22T14:25:46;97701.40;;;17.30
68027;BMP180;54819;48.030;14.710;2022-10-22T14:28:13;97705.80;;;17.30
68027;BMP180;54819;48.030;14.710;2022-10-22T14:30:40;97711.60;;;17.30
68027;BMP180;54819;48.030;14.710;2022-10-22T14:33:16;97713.80;;;17.20
68027;BMP180;54819;48.030;14.710;2022-10-22T14:35:44;97720.40;;;17.20
68027;BMP180;54819;48.030;14.710;2022-10-22T14:38:10;97721.20;;;17.20
68027;BMP180;54819;48.030;14.710;2022-10-22T14:40:38;97718.20;;;17.20
68027;BMP180;54819;48.030;14.710;2022-10-22T14:43:05;97715.40;;;17.18
68027;BMP180;54819;48.030;14.710;2022-10-22T14:45:32;97716.20;;;17.20
68027;BMP180;54819;48.030;14.710;2022-10-22T14:47:58;97711.80;;;17.20
68027;BMP180;54819;48.030;14.710;2022-10-22T14:50:25;97721.40;;;17.20
68027;BMP180;54819;48.030;14.710;2022-10-22T14:52:52;97719.20;;;17.10
68027;BMP180;54819;48.030;14.710;2022-10-22T14:55:19;97724.20;;;17.10
68027;BMP180;54819;48.030;14.710;2022-10-22T14:57:46;97726.80;;;17.04
68027;BMP180;54819;48.030;14.710;2022-10-22T15:00:16;97727.00;;;17.00
68027;BMP180;54819;48.030;14.710;2022-10-22T15:02:43;97728.40;;;17.10
68027;BMP180;54819;48.030;14.710;2022-10-22T15:05:11;97726.80;;;17.10
68027;BMP180;54819;48.030;14.710;2022-10-22T15:07:38;97726.40;;;17.20
68027;BMP180;54819;48.030;14.710;2022-10-22T15:10:07;97725.80;;;17.20
68027;BMP180;54819;48.030;14.710;2022-10-22T15:12:34;97726.20;;;17.20
68027;BMP180;54819;48.030;14.710;2022-10-22T15:15:01;97730.80;;;17.18
68027;BMP180;54819;48.030;14.710;2022-10-22T15:17:28;97727.00;;;17.10
68027;BMP180;54819;48.030;14.710;2022-10-22T15:19:54;97726.80;;;17.10
68027;BMP180;54819;48.030;14.710;2022-10-22T15:22:21;97736.00;;;17.00
68027;BMP180;54819;48.030;14.710;2022-10-22T15:24:48;97737.40;;;16.94
68027;BMP180;54819;48.030;14.710;2022-10-22T15:27:15;97737.60;;;16.90
68027;BMP180;54819;48.030;14.710;2022-10-22T15:29:42;97739.60;;;16.80
68027;BMP180;54819;48.030;14.710;2022-10-22T15:32:09;97742.00;;;16.70
68027;BMP180;54819;48.030;14.710;2022-10-22T15:34:37;97740.60;;;16.70
68027;BMP180;54819;48.030;14.710;2022-10-22T15:37:06;97745.20;;;16.60
68027;BMP180;54819;48.030;14.710;2022-10-22T15:39:34;97750.40;;;16.56
68027;BMP180;54819;48.030;14.710;2022-10-22T15:42:01;97750.60;;;16.50
68027;BMP180;54819;48.030;14.710;2022-10-22T15:44:30;97758.80;;;16.42
68027;BMP180;54819;48.030;14.710;2022-10-22T15:46:57;97768.00;;;16.40
68027;BMP180;54819;48.030;14.710;2022-10-22T15:49:26;97771.00;;;16.30